Time;durP1;ratioP1;P1;durP2;ratioP2;P2;SDS_P1;SDS_P2;PMS_P1;PMS_P2;Temp;Humidity;BMP_temperature;BMP_pressure;BME280_temperature;BME280_humidity;BME280_pressure;Samples;Min_cycle;Max_cycle;Signal;HPM_P1;HPM_P2
2021/09/17 00:00:08;;;;;;;19.09;12.36;;;;;;;11.50;56.42;101111.97;458498;115;922490;-82
2021/09/17 00:01:14;;;;;;;19.99;12.76;;;;;;;11.51;56.40;101113.66;457840;113;922495;-81
2021/09/17 00:02:17;;;;;;;17.20;12.65;;;;;;;11.53;56.38;101110.70;458962;115;923475;-82
2021/09/17 00:03:21;;;;;;;14.40;12.88;;;;;;;11.57;56.26;101111.98;459244;115;930278;-80
2021/09/17 00:04:25;;;;;;;14.82;12.12;;;;;;;11.60;56.16;101114.29;458143;115;923054;-80
2021/09/17 00:05:29;;;;;;;14.05;12.03;;;;;;;11.63;56.02;101113.89;458313;114;923044;-81
2021/09/17 00:06:35;;;;;;;14.16;11.76;;;;;;;11.66;55.93;101105.27;457605;115;923066;-82
2021/09/17 00:07:38;;;;;;;14.45;12.06;;;;;;;11.69;55.79;101116.59;459196;113;922637;-79
2021/09/17 00:08:42;;;;;;;14.92;12.17;;;;;;;11.70;55.63;101115.55;459555;115;922541;-81
2021/09/17 00:09:45;;;;;;;15.20;12.34;;;;;;;11.69;55.62;101119.33;457890;113;930069;-81
2021/09/17 00:10:50;;;;;;;13.60;12.12;;;;;;;11.67;55.59;101110.52;459114;113;930478;-80
2021/09/17 00:11:54;;;;;;;19.89;12.14;;;;;;;11.64;55.63;101108.19;459446;115;922694;-81
2021/09/17 00:12:57;;;;;;;14.83;11.98;;;;;;;11.62;55.66;101109.47;458326;115;930460;-81
2021/09/17 00:14:01;;;;;;;17.15;12.44;;;;;;;11.58;55.69;101102.72;458174;115;922557;-81
2021/09/17 00:15:06;;;;;;;15.18;13.16;;;;;;;11.54;55.80;101113.23;458324;113;923122;-82
2021/09/17 00:16:11;;;;;;;16.26;12.32;;;;;;;11.52;55.82;101114.50;448859;117;930408;-82
2021/09/17 00:17:15;;;;;;;14.86;11.97;;;;;;;11.48;55.91;101114.06;450837;115;923204;-81
2021/09/17 00:18:18;;;;;;;16.38;12.34;;;;;;;11.48;56.11;101113.22;459048;115;922665;-82
2021/09/17 00:19:21;;;;;;;16.12;11.82;;;;;;;11.47;56.21;101106.06;458435;114;922763;-82
2021/09/17 00:20:25;;;;;;;18.20;12.65;;;;;;;11.47;56.26;101109.64;452409;115;923115;-81
2021/09/17 00:21:30;;;;;;;16.73;12.25;;;;;;;11.47;56.27;101111.53;452571;115;923146;-82
2021/09/17 00:22:33;;;;;;;16.86;12.64;;;;;;;11.48;56.31;101110.48;458413;115;930530;-82
2021/09/17 00:23:40;;;;;;;15.11;12.14;;;;;;;11.49;56.26;101113.02;458097;114;922764;-81
2021/09/17 00:24:43;;;;;;;19.02;12.48;;;;;;;11.49;56.22;101109.44;459706;114;922195;-80
2021/09/17 00:25:47;;;;;;;19.19;13.28;;;;;;;11.46;56.15;101107.14;460023;115;922072;-78
2021/09/17 00:26:51;;;;;;;14.52;12.62;;;;;;;11.41;56.15;101104.19;459228;115;922721;-79
2021/09/17 00:27:54;;;;;;;13.78;12.31;;;;;;;11.37;56.25;101106.48;458596;113;922757;-81
2021/09/17 00:28:58;;;;;;;15.50;12.55;;;;;;;11.34;56.36;101111.52;460361;115;922380;-81
2021/09/17 00:30:02;;;;;;;15.66;13.46;;;;;;;11.34;56.46;101112.36;450009;117;922667;-82
2021/09/17 00:31:05;;;;;;;17.37;13.18;;;;;;;11.32;56.48;101110.88;451461;115;922499;-82
2021/09/17 00:32:09;;;;;;;18.76;15.12;;;;;;;11.32;56.54;101108.14;458646;113;922529;-81
2021/09/17 00:33:12;;;;;;;18.91;15.34;;;;;;;11.32;56.55;101117.18;457231;113;930490;-81
2021/09/17 00:34:16;;;;;;;21.82;16.47;;;;;;;11.34;56.53;101111.52;458454;115;922518;-80
2021/09/17 00:35:20;;;;;;;17.98;15.29;;;;;;;11.36;56.44;101114.89;458902;115;922429;-81
2021/09/17 00:36:23;;;;;;;18.85;15.97;;;;;;;11.39;56.35;101107.13;457901;115;930404;-81
2021/09/17 00:37:27;;;;;;;22.70;15.72;;;;;;;11.41;56.22;101107.73;458305;114;923114;-82
2021/09/17 00:38:30;;;;;;;20.27;16.59;;;;;;;11.44;56.06;101114.69;457356;115;922488;-80
2021/09/17 00:39:34;;;;;;;19.93;15.56;;;;;;;11.44;55.93;101107.34;459950;113;930526;-81
2021/09/17 00:40:39;;;;;;;22.79;16.22;;;;;;;11.46;55.85;101107.98;457544;115;922591;-80
2021/09/17 00:41:43;;;;;;;24.99;15.69;;;;;;;11.50;55.77;101111.97;449479;117;922509;-81
2021/09/17 00:42:46;;;;;;;28.38;16.91;;;;;;;11.51;55.64;101105.47;460055;113;922458;-81
2021/09/17 00:43:50;;;;;;;18.06;15.83;;;;;;;11.54;55.52;101104.19;458733;114;930286;-82
2021/09/17 00:44:53;;;;;;;22.13;17.31;;;;;;;11.56;55.35;101111.14;458840;115;922533;-81
2021/09/17 00:45:57;;;;;;;23.39;16.54;;;;;;;11.56;55.22;101108.41;458349;115;930736;-82
2021/09/17 00:47:01;;;;;;;22.40;15.41;;;;;;;11.55;55.06;101105.88;458367;115;922474;-81
2021/09/17 00:48:04;;;;;;;23.04;17.46;;;;;;;11.53;54.98;101105.23;458646;115;922601;-82
2021/09/17 00:49:08;;;;;;;24.11;17.21;;;;;;;11.49;55.02;101107.55;458164;115;930537;-81
2021/09/17 00:50:15;;;;;;;22.06;16.15;;;;;;;11.47;55.11;101108.80;458547;115;930498;-81
2021/09/17 00:51:19;;;;;;;24.53;17.56;;;;;;;11.42;55.07;101114.05;457506;115;930627;-80
2021/09/17 00:52:23;;;;;;;22.62;17.08;;;;;;;11.35;55.10;101105.86;460062;115;923172;-80
2021/09/17 00:53:28;;;;;;;22.26;17.22;;;;;;;11.29;55.22;101104.80;458548;114;923222;-82
2021/09/17 00:54:34;;;;;;;27.42;15.94;;;;;;;11.26;55.38;101118.00;458928;115;926412;-80
2021/09/17 00:55:37;;;;;;;22.16;17.04;;;;;;;11.22;55.46;101112.13;458426;113;922435;-82
2021/09/17 00:56:43;;;;;;;25.64;16.02;;;;;;;11.20;55.54;101113.36;457980;113;922508;-83
2021/09/17 00:57:47;;;;;;;21.21;15.08;;;;;;;11.18;55.62;101112.75;458499;115;922874;-81
2021/09/17 00:58:50;;;;;;;29.73;16.38;;;;;;;11.17;55.62;101109.17;458199;115;922518;-81
2021/09/17 00:59:54;;;;;;;18.81;15.86;;;;;;;11.17;55.62;101109.17;458704;115;922377;-81
2021/09/17 01:00:58;;;;;;;24.49;16.51;;;;;;;11.18;55.55;101113.59;457817;114;922745;-80
2021/09/17 01:02:03;;;;;;;24.25;15.38;;;;;;;11.18;55.49;101105.41;459652;114;922477;-82
2021/09/17 01:03:07;;;;;;;20.99;15.94;;;;;;;11.19;55.46;101104.33;457609;113;923130;-81
2021/09/17 01:04:11;;;;;;;18.62;15.60;;;;;;;11.21;55.33;101107.70;448579;115;930542;-82
2021/09/17 01:05:14;;;;;;;16.81;14.70;;;;;;;11.24;55.23;101096.39;451004;115;930627;-83
2021/09/17 01:06:18;;;;;;;22.41;15.66;;;;;;;11.26;55.15;101102.47;458335;114;922517;-80
2021/09/17 01:07:22;;;;;;;18.50;15.50;;;;;;;11.30;55.05;101097.45;458583;114;922994;-82
2021/09/17 01:08:25;;;;;;;20.56;14.97;;;;;;;11.30;54.89;101094.73;449592;116;922598;-82
2021/09/17 01:09:29;;;;;;;17.95;14.83;;;;;;;11.28;54.84;101094.92;459537;113;924836;-82
2021/09/17 01:10:33;;;;;;;23.39;15.28;;;;;;;11.28;54.80;101086.73;457060;113;930624;-82
2021/09/17 01:11:37;;;;;;;22.11;14.58;;;;;;;11.26;54.78;101088.81;459657;115;923121;-81
2021/09/17 01:12:42;;;;;;;25.12;15.32;;;;;;;11.23;54.77;101086.52;458566;114;922355;-79
2021/09/17 01:13:46;;;;;;;21.38;15.12;;;;;;;11.20;54.90;101089.64;458919;113;930165;-80
2021/09/17 01:14:50;;;;;;;21.42;15.02;;;;;;;11.17;54.93;101100.14;460399;115;922305;-81
2021/09/17 01:15:54;;;;;;;23.08;15.58;;;;;;;11.11;54.95;101096.34;459879;113;922202;-82
2021/09/17 01:16:58;;;;;;;20.42;14.89;;;;;;;11.08;55.14;101096.74;458500;115;930538;-81
2021/09/17 01:18:01;;;;;;;19.11;14.16;;;;;;;11.06;55.29;101100.74;459528;113;922873;-82
2021/09/17 01:19:04;;;;;;;23.08;15.23;;;;;;;11.04;55.36;101095.48;458793;114;930330;-81
2021/09/17 01:20:15;;;;;;;21.75;13.84;;;;;;;11.07;55.43;101097.81;459429;114;922960;-81
2021/09/17 01:21:20;;;;;;;21.04;14.26;;;;;;;11.09;55.46;101094.86;460052;114;922530;-80
2021/09/17 01:22:23;;;;;;;27.21;14.55;;;;;;;11.10;55.43;101083.75;459368;114;923209;-82
2021/09/17 01:23:27;;;;;;;15.08;13.39;;;;;;;11.13;55.39;101086.08;459139;113;922569;-80
2021/09/17 01:24:33;;;;;;;23.98;14.87;;;;;;;11.15;55.34;101092.15;459243;114;930802;-80
2021/09/17 01:25:36;;;;;;;18.14;14.18;;;;;;;11.16;55.25;101082.92;459664;114;922577;-82
2021/09/17 01:26:41;;;;;;;18.12;14.49;;;;;;;11.17;55.19;101087.34;459712;114;923180;-81
2021/09/17 01:27:47;;;;;;;19.29;14.06;;;;;;;11.17;55.10;101089.22;459601;114;922509;-81
2021/09/17 01:28:50;;;;;;;16.82;13.22;;;;;;;11.15;55.09;101077.66;460355;113;922559;-81
2021/09/17 01:29:54;;;;;;;21.29;14.66;;;;;;;11.12;55.13;101087.12;458389;114;922578;-81
2021/09/17 01:30:59;;;;;;;16.85;14.18;;;;;;;11.09;55.21;101084.78;460040;114;922926;-81
2021/09/17 01:32:03;;;;;;;18.75;13.26;;;;;;;11.06;55.31;101077.02;459207;113;930221;-80
2021/09/17 01:33:06;;;;;;;18.82;13.86;;;;;;;11.04;55.42;101081.83;459088;114;922967;-81
2021/09/17 01:34:10;;;;;;;15.53;13.61;;;;;;;11.02;55.57;101077.64;459789;114;922938;-81
2021/09/17 01:35:16;;;;;;;17.17;12.81;;;;;;;11.00;55.66;101088.76;460131;113;930326;-81
2021/09/17 01:36:21;;;;;;;16.82;13.55;;;;;;;10.98;55.74;101089.99;459609;113;930445;-81
2021/09/17 01:37:24;;;;;;;14.55;12.24;;;;;;;10.94;55.82;101089.58;458950;114;923192;-81
2021/09/17 01:38:30;;;;;;;15.91;11.63;;;;;;;10.89;55.92;101089.34;459892;113;922631;-81
2021/09/17 01:39:33;;;;;;;13.19;10.41;;;;;;;10.85;56.01;101091.66;459559;114;923458;-80
2021/09/17 01:40:37;;;;;;;13.84;9.98;;;;;;;10.79;56.10;101091.63;450158;117;922822;-81
2021/09/17 01:41:41;;;;;;;9.73;8.77;;;;;;;10.74;56.20;101086.78;452847;114;922723;-80
2021/09/17 01:42:45;;;;;;;10.54;9.05;;;;;;;10.69;56.24;101092.02;460067;113;923226;-81
2021/09/17 01:43:49;;;;;;;9.39;8.45;;;;;;;10.65;56.32;101093.44;460869;113;922714;-81
2021/09/17 01:44:52;;;;;;;14.03;7.78;;;;;;;10.61;56.42;101091.33;461710;114;922627;-79
2021/09/17 01:45:56;;;;;;;10.50;7.28;;;;;;;10.58;56.53;101095.31;459205;114;922560;-81
2021/09/17 01:47:00;;;;;;;8.96;6.64;;;;;;;10.56;56.44;101093.82;458659;113;930373;-81
2021/09/17 01:48:04;;;;;;;8.72;6.59;;;;;;;10.50;56.37;101089.17;460089;114;923112;-81
2021/09/17 01:49:08;;;;;;;9.72;6.43;;;;;;;10.43;56.33;101098.16;459153;113;922520;-81
2021/09/17 01:50:12;;;;;;;10.91;6.74;;;;;;;10.37;56.46;101093.50;450821;117;922671;-82
2021/09/17 01:51:16;;;;;;;9.07;7.46;;;;;;;10.33;56.54;101099.56;451201;114;930601;-80
2021/09/17 01:52:19;;;;;;;10.47;7.06;;;;;;;10.29;56.61;101098.29;459066;113;923203;-81
2021/09/17 01:53:22;;;;;;;9.85;7.89;;;;;;;10.24;56.75;101093.45;460032;113;923159;-80
2021/09/17 01:54:26;;;;;;;10.04;8.53;;;;;;;10.21;56.83;101098.43;458640;113;923027;-81
2021/09/17 01:55:30;;;;;;;8.41;7.08;;;;;;;10.18;56.91;101094.23;458321;114;930495;-81
2021/09/17 01:56:35;;;;;;;9.23;6.91;;;;;;;10.17;56.99;101095.27;458911;114;922937;-81
2021/09/17 01:57:39;;;;;;;10.81;7.48;;;;;;;10.16;56.99;101099.03;459609;114;922526;-81
2021/09/17 01:58:42;;;;;;;9.38;7.88;;;;;;;10.13;57.03;101101.30;459387;114;930960;-78
2021/09/17 01:59:46;;;;;;;18.87;8.01;;;;;;;10.10;57.17;101097.08;461266;113;922551;-81
2021/09/17 02:00:50;;;;;;;10.19;8.32;;;;;;;10.10;57.28;101097.08;460099;113;922879;-80
2021/09/17 02:01:54;;;;;;;10.88;8.21;;;;;;;10.12;57.38;101091.44;460588;114;922730;-80
2021/09/17 02:02:57;;;;;;;13.61;8.24;;;;;;;10.12;57.44;101092.28;460335;114;930699;-81
2021/09/17 02:04:01;;;;;;;9.82;8.45;;;;;;;10.15;57.52;101094.59;459840;113;929795;-79
2021/09/17 02:05:05;;;;;;;12.21;7.59;;;;;;;10.17;57.60;101092.55;460463;114;930231;-80
2021/09/17 02:06:09;;;;;;;10.52;7.89;;;;;;;10.21;57.57;101087.53;459245;114;930519;-79
2021/09/17 02:07:13;;;;;;;12.69;8.33;;;;;;;10.23;57.57;101091.75;458625;114;930473;-80
2021/09/17 02:08:16;;;;;;;14.54;8.97;;;;;;;10.25;57.54;101083.39;459919;113;930541;-80
2021/09/17 02:09:20;;;;;;;13.78;8.30;;;;;;;10.28;57.53;101088.42;461243;114;922543;-82
2021/09/17 02:10:24;;;;;;;8.91;7.93;;;;;;;10.28;57.53;101089.27;458631;113;922918;-80
2021/09/17 02:11:28;;;;;;;9.39;8.26;;;;;;;10.31;57.58;101083.41;459465;114;923060;-82
2021/09/17 02:12:32;;;;;;;9.25;8.11;;;;;;;10.35;57.64;101084.70;458596;113;922957;-79
2021/09/17 02:13:36;;;;;;;15.00;7.79;;;;;;;10.39;57.59;101082.41;459356;114;922610;-80
2021/09/17 02:14:40;;;;;;;10.64;7.28;;;;;;;10.41;57.46;101093.97;458867;114;922958;-80
2021/09/17 02:15:43;;;;;;;12.85;7.79;;;;;;;10.42;57.44;101088.29;459587;114;922535;-81
2021/09/17 02:16:47;;;;;;;8.26;6.99;;;;;;;10.43;57.41;101089.98;460105;113;923421;-81
2021/09/17 02:17:50;;;;;;;11.71;8.04;;;;;;;10.43;57.29;101092.70;459044;114;922593;-81
2021/09/17 02:18:54;;;;;;;12.49;7.89;;;;;;;10.42;57.34;101091.02;459625;114;923195;-81
2021/09/17 02:19:58;;;;;;;9.83;7.89;;;;;;;10.40;57.30;101090.39;460086;114;930521;-80
2021/09/17 02:21:03;;;;;;;9.11;8.14;;;;;;;10.41;57.38;101086.63;459423;114;930637;-82
2021/09/17 02:22:06;;;;;;;11.05;8.74;;;;;;;10.40;57.42;101084.09;460148;114;922485;-80
2021/09/17 02:23:10;;;;;;;12.81;10.23;;;;;;;10.40;57.44;101081.37;460139;113;922916;-81
2021/09/17 02:24:13;;;;;;;14.44;9.38;;;;;;;10.41;57.44;101083.06;458199;113;922604;-84
2021/09/17 02:25:17;;;;;;;16.27;9.92;;;;;;;10.39;57.46;101085.98;459870;114;930439;-80
2021/09/17 02:26:21;;;;;;;13.78;10.30;;;;;;;10.38;57.41;101081.56;459345;113;922558;-81
2021/09/17 02:27:25;;;;;;;12.82;10.29;;;;;;;10.36;57.48;101089.12;460659;114;922945;-82
2021/09/17 02:28:28;;;;;;;16.07;10.28;;;;;;;10.36;57.51;101091.00;460037;114;930349;-83
2021/09/17 02:29:32;;;;;;;12.27;10.86;;;;;;;10.35;57.54;101087.43;458856;113;922840;-83
2021/09/17 02:30:36;;;;;;;13.05;11.70;;;;;;;10.33;57.59;101084.05;459917;114;930284;-80
2021/09/17 02:31:39;;;;;;;13.02;11.68;;;;;;;10.33;57.53;101086.78;459684;114;922528;-84
2021/09/17 02:32:43;;;;;;;15.09;12.31;;;;;;;10.29;57.49;101084.66;447868;117;930578;-82
2021/09/17 02:33:46;;;;;;;15.53;11.77;;;;;;;10.24;57.54;101085.27;438890;118;922982;-76
2021/09/17 02:34:50;;;;;;;25.13;11.93;;;;;;;10.20;57.56;101085.88;442676;118;922531;-77
2021/09/17 02:35:54;;;;;;;15.04;11.15;;;;;;;10.17;57.55;101075.36;446032;118;930530;-77
2021/09/17 02:36:57;;;;;;;14.57;12.35;;;;;;;10.13;57.55;101076.77;446203;118;922960;-78
2021/09/17 02:38:01;;;;;;;16.29;12.46;;;;;;;10.10;57.68;101083.45;446400;117;930256;-77
2021/09/17 02:39:04;;;;;;;14.55;10.82;;;;;;;10.09;57.70;101076.31;446034;116;922632;-79
2021/09/17 02:40:12;;;;;;;12.94;11.59;;;;;;;10.07;57.71;101078.41;448390;116;923200;-79
2021/09/17 02:41:15;;;;;;;18.81;11.57;;;;;;;10.05;57.75;101077.76;450479;115;922492;-82
2021/09/17 02:42:19;;;;;;;17.85;11.37;;;;;;;10.04;57.78;101081.52;435169;120;923298;-81
2021/09/17 02:43:22;;;;;;;13.42;10.66;;;;;;;10.02;57.79;101080.90;454083;115;922490;-80
2021/09/17 02:44:26;;;;;;;13.21;11.08;;;;;;;10.01;57.78;101082.78;459739;114;930318;-81
2021/09/17 02:45:30;;;;;;;17.26;10.96;;;;;;;10.00;57.83;101080.24;460509;114;930297;-80
2021/09/17 02:46:34;;;;;;;23.21;12.79;;;;;;;9.99;57.87;101079.40;461600;114;928084;-79
2021/09/17 02:47:38;;;;;;;21.30;10.65;;;;;;;9.99;57.92;101084.00;459796;113;930152;-81
2021/09/17 02:48:44;;;;;;;26.81;11.40;;;;;;;10.01;57.93;101073.76;462638;114;921990;-80
2021/09/17 02:49:47;;;;;;;19.31;10.71;;;;;;;10.01;57.86;101076.48;460442;113;922569;-81
2021/09/17 02:50:51;;;;;;;13.05;10.16;;;;;;;9.97;57.76;101086.10;461366;114;922245;-81
2021/09/17 02:51:55;;;;;;;13.19;9.97;;;;;;;9.94;57.77;101075.59;461856;114;922616;-81
2021/09/17 02:52:59;;;;;;;16.36;10.14;;;;;;;9.90;57.86;101079.75;452055;116;923127;-80
2021/09/17 02:54:02;;;;;;;18.98;9.96;;;;;;;9.88;58.05;101074.50;451772;114;930469;-80
2021/09/17 02:55:06;;;;;;;14.42;9.14;;;;;;;9.90;58.15;101079.75;458343;114;930363;-80
2021/09/17 02:56:10;;;;;;;16.85;10.12;;;;;;;9.94;58.23;101081.88;460330;114;923177;-79
2021/09/17 02:57:15;;;;;;;14.08;10.96;;;;;;;9.98;58.20;101085.88;459607;114;930244;-79
2021/09/17 02:58:19;;;;;;;17.56;10.66;;;;;;;10.03;58.11;101079.86;459557;114;923111;-81
2021/09/17 02:59:25;;;;;;;13.22;11.47;;;;;;;10.07;57.99;101081.14;460504;113;930894;-80
2021/09/17 03:00:28;;;;;;;12.54;11.34;;;;;;;10.11;57.76;101087.02;457373;113;922681;-80
2021/09/17 03:01:32;;;;;;;13.16;11.26;;;;;;;10.11;57.63;101074.23;459891;114;923146;-79
2021/09/17 03:02:36;;;;;;;13.80;11.17;;;;;;;10.13;57.54;101068.59;458962;114;922767;-79
2021/09/17 03:03:40;;;;;;;14.05;10.82;;;;;;;10.13;57.43;101069.45;459776;113;922487;-80
2021/09/17 03:04:44;;;;;;;16.17;10.71;;;;;;;10.13;57.35;101069.45;458742;113;930487;-80
2021/09/17 03:05:47;;;;;;;15.89;11.14;;;;;;;10.11;57.27;101068.80;458943;114;930368;-80
2021/09/17 03:06:53;;;;;;;20.95;10.81;;;;;;;10.07;57.26;101072.13;458391;113;922929;-80
2021/09/17 03:07:56;;;;;;;16.86;10.23;;;;;;;10.00;57.35;101069.34;459965;114;922510;-79
2021/09/17 03:09:00;;;;;;;15.75;10.71;;;;;;;9.95;57.40;101069.10;460150;113;922657;-81
2021/09/17 03:10:05;;;;;;;16.27;11.20;;;;;;;9.88;57.47;101066.33;459616;113;923128;-80
2021/09/17 03:11:09;;;;;;;15.52;11.28;;;;;;;9.83;57.56;101068.80;458586;114;923127;-80
2021/09/17 03:12:12;;;;;;;20.87;10.78;;;;;;;9.78;57.74;101064.98;458715;114;923181;-80
2021/09/17 03:13:16;;;;;;;17.41;10.06;;;;;;;9.74;57.84;101069.16;459259;114;922924;-80
2021/09/17 03:14:20;;;;;;;18.41;9.18;;;;;;;9.71;57.96;101066.81;460098;113;922765;-81
2021/09/17 03:15:24;;;;;;;10.78;8.58;;;;;;;9.66;58.05;101056.52;459224;114;922657;-81
2021/09/17 03:16:28;;;;;;;15.92;8.42;;;;;;;9.62;58.19;101066.97;459637;114;923060;-80
2021/09/17 03:17:31;;;;;;;18.19;7.99;;;;;;;9.58;58.26;101064.84;459112;114;923217;-80
2021/09/17 03:18:35;;;;;;;12.54;8.85;;;;;;;9.53;58.41;101064.59;460085;114;930451;-79
2021/09/17 03:19:38;;;;;;;11.32;9.47;;;;;;;9.49;58.53;101068.72;459554;114;923047;-81
2021/09/17 03:20:44;;;;;;;10.21;9.13;;;;;;;9.43;58.72;101064.91;459052;114;930613;-80
2021/09/17 03:21:48;;;;;;;10.62;9.15;;;;;;;9.39;58.98;101066.34;459596;114;923016;-79
2021/09/17 03:22:51;;;;;;;15.54;9.82;;;;;;;9.34;59.18;101066.09;459680;114;930035;-81
2021/09/17 03:23:54;;;;;;;17.62;11.44;;;;;;;9.30;59.47;101070.24;459213;114;930264;-80
2021/09/17 03:24:58;;;;;;;15.88;9.44;;;;;;;9.28;59.75;101069.58;460585;114;923095;-79
2021/09/17 03:26:01;;;;;;;13.43;9.43;;;;;;;9.30;59.97;101066.67;458611;114;922633;-79
2021/09/17 03:27:05;;;;;;;11.84;9.25;;;;;;;9.28;60.12;101066.86;458893;114;923416;-79
2021/09/17 03:28:08;;;;;;;17.85;9.60;;;;;;;9.29;60.27;101073.15;459736;114;922697;-79
2021/09/17 03:29:12;;;;;;;10.93;9.27;;;;;;;9.32;60.39;101070.06;460143;114;922943;-79
2021/09/17 03:30:17;;;;;;;10.66;9.36;;;;;;;9.36;60.49;101069.47;460903;114;930285;-78
2021/09/17 03:31:21;;;;;;;13.13;9.26;;;;;;;9.41;60.40;101063.44;460091;114;922357;-79
2021/09/17 03:32:24;;;;;;;14.42;8.88;;;;;;;9.41;60.37;101069.72;458684;114;929827;-78
2021/09/17 03:33:27;;;;;;;13.69;8.69;;;;;;;9.39;60.39;101066.34;459434;114;922833;-79
2021/09/17 03:34:31;;;;;;;11.19;8.82;;;;;;;9.39;60.47;101060.90;460579;113;930719;-80
2021/09/17 03:35:34;;;;;;;16.64;9.38;;;;;;;9.39;60.51;101066.34;458753;114;922970;-78
2021/09/17 03:36:44;;;;;;;18.95;9.57;;;;;;;9.39;60.47;101063.62;460054;114;930392;-79
2021/09/17 03:37:45;;;;;;;16.54;9.41;;;;;;;9.38;60.45;101070.09;459216;114;922713;-79
2021/09/17 03:38:48;;;;;;;18.64;9.98;;;;;;;9.35;60.49;101059.61;460084;114;922638;-80
2021/09/17 03:39:52;;;;;;;11.51;8.28;;;;;;;9.33;60.50;101058.95;460195;114;922703;-79
2021/09/17 03:40:57;;;;;;;10.10;8.69;;;;;;;9.32;60.53;101062.70;460011;114;922649;-79
2021/09/17 03:42:00;;;;;;;10.43;8.29;;;;;;;9.31;60.63;101062.92;459773;113;922539;-81
2021/09/17 03:43:05;;;;;;;17.32;10.25;;;;;;;9.32;60.70;101056.45;458740;113;923397;-80
2021/09/17 03:44:08;;;;;;;13.40;8.95;;;;;;;9.35;60.82;101059.61;458956;113;930232;-81
2021/09/17 03:45:12;;;;;;;12.73;9.81;;;;;;;9.38;60.79;101064.66;459842;114;922447;-80
2021/09/17 03:46:17;;;;;;;12.29;9.83;;;;;;;9.43;60.76;101064.91;458563;114;930324;-80
2021/09/17 03:47:20;;;;;;;14.68;9.80;;;;;;;9.47;60.79;101068.09;460288;114;923358;-80
2021/09/17 03:48:24;;;;;;;20.51;11.08;;;;;;;9.51;60.83;101064.78;460147;114;922886;-79
2021/09/17 03:49:28;;;;;;;12.14;10.15;;;;;;;9.58;60.80;101070.29;459087;114;922906;-81
2021/09/17 03:50:33;;;;;;;16.66;11.54;;;;;;;9.66;60.75;101059.24;459414;113;922419;-80
2021/09/17 03:51:36;;;;;;;13.12;9.47;;;;;;;9.74;60.59;101058.27;460536;114;922478;-80
2021/09/17 03:52:40;;;;;;;26.69;10.28;;;;;;;9.86;60.41;101062.98;458737;114;922373;-80
2021/09/17 03:53:43;;;;;;;18.69;9.58;;;;;;;9.94;60.01;101056.52;459063;114;930553;-80
2021/09/17 03:54:47;;;;;;;14.56;10.15;;;;;;;9.94;60.01;101056.52;460140;114;930346;-80
2021/09/17 03:55:50;;;;;;;14.76;10.18;;;;;;;10.00;59.80;101062.02;460388;114;930310;-81
2021/09/17 03:56:57;;;;;;;22.17;11.43;;;;;;;10.05;59.56;101064.98;457709;114;923026;-80
2021/09/17 03:58:02;;;;;;;15.91;11.23;;;;;;;10.11;59.34;101068.80;457983;114;922418;-79
2021/09/17 03:59:05;;;;;;;18.82;10.77;;;;;;;10.16;59.10;101065.46;459902;114;922587;-81
2021/09/17 04:00:14;;;;;;;17.81;11.38;;;;;;;10.19;58.88;101065.95;458920;113;923017;-79
2021/09/17 04:01:18;;;;;;;24.37;12.01;;;;;;;10.24;58.67;101065.34;458713;114;922891;-78
2021/09/17 04:02:22;;;;;;;20.46;11.14;;;;;;;10.26;58.35;101065.97;459397;114;923064;-82
2021/09/17 04:03:26;;;;;;;18.69;11.24;;;;;;;10.25;58.18;101062.43;459955;114;922594;-80
2021/09/17 04:04:30;;;;;;;36.28;12.02;;;;;;;10.24;58.12;101063.47;458906;114;922983;-80
2021/09/17 04:05:33;;;;;;;18.52;11.89;;;;;;;10.23;58.08;101058.20;460602;113;923131;-80
2021/09/17 04:06:38;;;;;;;21.00;11.44;;;;;;;10.22;57.95;101057.36;459112;114;922693;-79
2021/09/17 04:07:43;;;;;;;23.93;12.13;;;;;;;10.21;57.91;101055.67;458519;113;922506;-81
2021/09/17 04:08:46;;;;;;;22.58;12.13;;;;;;;10.21;57.80;101061.13;458797;114;922403;-80
2021/09/17 04:09:50;;;;;;;27.62;13.38;;;;;;;10.22;57.71;101057.36;459825;114;922982;-81
2021/09/17 04:10:54;;;;;;;40.92;12.89;;;;;;;10.19;57.54;101055.05;460514;114;923083;-80
2021/09/17 04:11:58;;;;;;;31.12;12.74;;;;;;;10.17;57.48;101056.28;459844;114;930473;-80
2021/09/17 04:13:01;;;;;;;30.48;13.94;;;;;;;10.13;57.42;101060.42;459168;114;923048;-79
2021/09/17 04:14:05;;;;;;;21.76;14.04;;;;;;;10.07;57.29;101059.34;458991;114;930497;-79
2021/09/17 04:15:09;;;;;;;24.00;13.98;;;;;;;10.00;57.14;101053.84;459410;114;930837;-80
2021/09/17 04:16:14;;;;;;;30.21;12.97;;;;;;;9.94;57.13;101057.36;458603;114;922485;-79
2021/09/17 04:17:17;;;;;;;23.51;12.98;;;;;;;9.87;57.17;101052.89;459431;114;922724;-79
2021/09/17 04:18:21;;;;;;;26.96;13.58;;;;;;;9.82;57.35;101056.22;460526;114;922573;-79
2021/09/17 04:19:29;;;;;;;22.83;12.88;;;;;;;9.79;57.41;101055.78;448026;117;922907;-80
2021/09/17 04:20:33;;;;;;;28.55;13.03;;;;;;;9.76;57.56;101054.28;445692;116;922814;-78
2021/09/17 04:21:37;;;;;;;23.99;12.86;;;;;;;9.74;57.72;101058.27;454139;116;922562;-79
2021/09/17 04:22:41;;;;;;;23.56;12.72;;;;;;;9.75;57.82;101054.51;454606;115;922447;-79
2021/09/17 04:23:44;;;;;;;25.97;14.99;;;;;;;9.75;57.85;101054.51;454063;116;922824;-80
2021/09/17 04:24:48;;;;;;;24.41;13.61;;;;;;;9.76;57.97;101058.92;454292;116;930175;-81
2021/09/17 04:25:51;;;;;;;19.08;13.33;;;;;;;9.78;57.99;101052.22;449800;116;922775;-80
2021/09/17 04:26:56;;;;;;;29.22;12.61;;;;;;;9.79;58.02;101053.91;450249;116;922998;-80
2021/09/17 04:28:00;;;;;;;31.22;12.98;;;;;;;9.82;58.07;101052.66;453702;116;930512;-79
2021/09/17 04:29:04;;;;;;;21.68;13.61;;;;;;;9.82;58.09;101053.50;453862;116;930492;-81
2021/09/17 04:30:08;;;;;;;33.43;14.55;;;;;;;9.83;58.15;101051.62;445626;117;930630;-80
2021/09/17 04:31:12;;;;;;;29.23;13.75;;;;;;;9.83;58.25;101057.06;446239;116;922679;-80
2021/09/17 04:32:16;;;;;;;22.31;12.09;;;;;;;9.82;58.36;101053.50;453713;116;922504;-80
2021/09/17 04:33:20;;;;;;;23.22;12.62;;;;;;;9.82;58.45;101049.93;453683;116;930988;-81
2021/09/17 04:34:23;;;;;;;20.26;11.79;;;;;;;9.82;58.60;101055.38;453204;116;922539;-79
2021/09/17 04:35:27;;;;;;;21.08;12.97;;;;;;;9.83;58.71;101057.06;453622;116;930568;-80
2021/09/17 04:36:31;;;;;;;25.06;13.69;;;;;;;9.84;58.79;101053.30;453824;116;930384;-80
2021/09/17 04:37:41;;;;;;;21.64;12.92;;;;;;;9.84;58.87;101051.43;453693;116;923066;-81
2021/09/17 04:38:45;;;;;;;19.25;12.67;;;;;;;9.86;58.94;101052.09;437436;119;922502;-80
2021/09/17 04:39:49;;;;;;;35.69;12.89;;;;;;;9.87;59.04;101050.17;437636;119;930571;-81
2021/09/17 04:40:52;;;;;;;29.74;12.99;;;;;;;9.89;59.11;101050.83;438407;121;930480;-81
2021/09/17 04:41:56;;;;;;;21.95;12.51;;;;;;;9.90;59.17;101052.52;438174;121;923189;-81
2021/09/17 04:43:01;;;;;;;25.16;12.71;;;;;;;9.93;59.17;101057.55;431048;123;930410;-81
2021/09/17 04:44:04;;;;;;;47.32;13.36;;;;;;;9.95;59.18;101059.05;442716;116;930418;-80
2021/09/17 04:45:09;;;;;;;32.86;13.95;;;;;;;9.98;59.25;101050.47;454034;116;922602;-80
2021/09/17 04:46:15;;;;;;;38.14;13.93;;;;;;;10.02;59.29;101059.10;454656;114;922524;-81
2021/09/17 04:47:19;;;;;;;39.55;14.34;;;;;;;10.08;59.42;101052.02;454381;114;922681;-80
2021/09/17 04:48:22;;;;;;;52.24;13.84;;;;;;;10.13;59.49;101058.55;453292;116;930234;-83
2021/09/17 04:49:26;;;;;;;45.22;14.19;;;;;;;10.20;59.50;101056.71;453211;116;930661;-81